Terminal Aerodrome Forecast
Issued by NWS

Home | Current Version | Previous Version | Text Only | Print | Product List | Glossary On
Versions: 1 2 3 4 5 6 7 8 9 10 11 12 13 14 15 16 17 18 19 20 21 22 23
722
FTUS46 KOTX 032327
TAFCOE
TAF
KCOE 032327Z 0400/0424 18007KT P6SM SKC
     FM040500 07005KT P6SM SCT120
     FM041300 12007KT P6SM SCT090 BKN120
      AMD LTD TO CLD VIS AND WIND=

USA.gov is the U.S. government's official web portal to all federal, state and local government web resources and services.